createdAt,value
2022-08-28T00:01:51.918Z,18.51
2022-08-28T00:03:53.109Z,18.53
2022-08-28T00:05:54.586Z,18.5
2022-08-28T00:07:55.453Z,18.54
2022-08-28T00:09:56.964Z,18.45
2022-08-28T00:11:58.712Z,18.44
2022-08-28T00:13:59.955Z,18.42
2022-08-28T00:16:01.799Z,18.4
2022-08-28T00:18:02.684Z,18.41
2022-08-28T00:20:04.014Z,18.39
2022-08-28T00:24:06.477Z,18.34
2022-08-28T00:26:08.230Z,18.32
2022-08-28T00:28:09.257Z,18.31
2022-08-28T00:30:10.327Z,18.3
2022-08-28T00:32:12.131Z,18.28
2022-08-28T00:34:13.126Z,18.26
2022-08-28T00:36:14.303Z,18.21
2022-08-28T00:38:15.735Z,18.14
2022-08-28T00:40:16.808Z,18.16
2022-08-28T00:42:18.608Z,18.09
2022-08-28T00:44:20.361Z,18.03
2022-08-28T00:46:22.218Z,18.01
2022-08-28T00:48:23.633Z,17.95
2022-08-28T00:50:24.599Z,17.84
2022-08-28T00:52:25.930Z,17.82
2022-08-28T00:54:27.228Z,17.8
2022-08-28T00:56:29.011Z,17.77
2022-08-28T00:58:29.921Z,17.75
2022-08-28T01:00:31.016Z,17.73
2022-08-28T01:02:32.166Z,17.67
2022-08-28T01:04:42.882Z,17.63
2022-08-28T01:06:34.923Z,17.56
2022-08-28T01:08:36.206Z,17.46
2022-08-28T01:10:37.141Z,17.4
2022-08-28T01:12:38.917Z,17.44
2022-08-28T01:14:40.457Z,17.36
2022-08-28T01:16:41.886Z,17.31
2022-08-28T01:18:42.921Z,17.28
2022-08-28T01:20:44.505Z,17.32
2022-08-28T01:22:45.846Z,17.29
2022-08-28T01:24:47.122Z,17.32
2022-08-28T01:26:48.129Z,17.25
2022-08-28T01:28:49.688Z,17.19
2022-08-28T01:30:50.601Z,17.24
2022-08-28T01:32:52.061Z,17.29
2022-08-28T01:34:53.651Z,17.3
2022-08-28T01:36:54.975Z,17.32
2022-08-28T01:39:39.890Z,17.31
2022-08-28T01:41:41.077Z,17.32
2022-08-28T01:43:42.858Z,17.27
2022-08-28T01:45:53.385Z,17.24
2022-08-28T01:47:45.512Z,17.16
2022-08-28T01:49:46.528Z,17.18
2022-08-28T01:51:48.353Z,17.14
2022-08-28T01:53:50.000Z,17.11
2022-08-28T01:55:51.775Z,17.07
2022-08-28T01:57:52.660Z,17.07
2022-08-28T01:59:54.152Z,17.1
2022-08-28T02:01:55.741Z,17.07
2022-08-28T02:03:57.057Z,17.03
2022-08-28T02:08:00.018Z,16.99
2022-08-28T02:10:00.987Z,16.98
2022-08-28T02:12:02.875Z,16.88
2022-08-28T02:14:04.006Z,16.85
2022-08-28T02:16:13.359Z,16.82
2022-08-28T02:18:06.327Z,16.77
2022-08-28T02:20:07.384Z,16.71
2022-08-28T02:22:09.120Z,16.62
2022-08-28T02:24:10.281Z,16.59
2022-08-28T02:26:12.177Z,16.48
2022-08-28T02:28:13.335Z,16.38
2022-08-28T02:30:14.424Z,16.34
2022-08-28T02:32:15.777Z,16.35
2022-08-28T02:34:17.287Z,16.37
2022-08-28T02:36:18.806Z,16.36
2022-08-28T02:38:20.492Z,16.37
2022-08-28T02:40:22.150Z,16.34
2022-08-28T02:42:23.220Z,16.33
2022-08-28T02:44:24.401Z,16.35
2022-08-28T02:46:26.227Z,16.36
2022-08-28T02:48:27.911Z,16.38
2022-08-28T02:50:29.052Z,16.37
2022-08-28T02:52:30.391Z,16.44
2022-08-28T02:54:31.951Z,16.43
2022-08-28T02:56:33.457Z,16.42
2022-08-28T02:58:34.399Z,16.46
2022-08-28T03:00:35.386Z,16.42
2022-08-28T03:02:36.323Z,16.47
2022-08-28T03:04:37.782Z,16.43
2022-08-28T03:06:39.464Z,16.47
2022-08-28T03:08:40.648Z,16.49
2022-08-28T03:10:42.248Z,16.47
2022-08-28T03:12:44.110Z,16.45
2022-08-28T03:14:45.393Z,16.46
2022-08-28T03:16:46.540Z,16.41
2022-08-28T03:18:47.892Z,16.42
2022-08-28T03:20:49.478Z,16.37
2022-08-28T03:22:51.267Z,16.4
2022-08-28T03:24:52.965Z,16.35
2022-08-28T03:26:54.033Z,16.35
2022-08-28T03:28:55.343Z,16.32
2022-08-28T03:30:57.208Z,16.28
2022-08-28T03:32:58.614Z,16.31
2022-08-28T03:34:59.955Z,16.29
2022-08-28T03:37:01.426Z,16.3
2022-08-28T03:39:02.727Z,16.32
2022-08-28T03:41:03.781Z,16.28
2022-08-28T03:43:06.804Z,16.29
2022-08-28T03:45:06.853Z,16.28
2022-08-28T03:47:07.744Z,16.32
2022-08-28T03:49:09.087Z,16.27
2022-08-28T03:51:10.688Z,16.3
2022-08-28T03:53:12.518Z,16.23
2022-08-28T03:55:14.253Z,16.2
2022-08-28T03:57:16.087Z,16.22
2022-08-28T03:59:17.394Z,16.21
2022-08-28T04:01:19.180Z,16.22
2022-08-28T04:03:20.215Z,16.15
2022-08-28T04:05:21.072Z,16.14
2022-08-28T04:07:22.625Z,16.16
2022-08-28T04:09:24.352Z,16.16
2022-08-28T04:11:25.914Z,16.14
2022-08-28T04:13:26.920Z,16.11
2022-08-28T04:15:28.653Z,16.11
2022-08-28T04:17:30.202Z,16.08
2022-08-28T04:19:31.590Z,16.04
2022-08-28T04:21:32.868Z,16.01
2022-08-28T04:23:34.651Z,16.03
2022-08-28T04:25:36.162Z,15.97
2022-08-28T04:27:37.302Z,16.04
2022-08-28T04:29:39.052Z,16.05
2022-08-28T04:31:40.969Z,16.09
2022-08-28T04:33:42.462Z,16.1
2022-08-28T04:35:44.147Z,16.12
2022-08-28T04:37:45.394Z,16.11
2022-08-28T04:39:46.674Z,16.04
2022-08-28T04:41:48.255Z,16.04
2022-08-28T04:43:49.509Z,16.06
2022-08-28T04:45:50.744Z,16.02
2022-08-28T04:47:52.344Z,16.01
2022-08-28T04:49:53.752Z,15.99
2022-08-28T04:51:55.257Z,15.99
2022-08-28T04:53:56.303Z,16.03
2022-08-28T04:55:57.299Z,15.94
2022-08-28T04:57:58.841Z,15.92
2022-08-28T05:00:00.324Z,15.96
2022-08-28T05:02:02.144Z,15.93
2022-08-28T05:04:03.308Z,15.97
2022-08-28T05:06:04.447Z,16
2022-08-28T05:08:05.721Z,16.01
2022-08-28T05:10:07.253Z,16.02
2022-08-28T05:12:08.899Z,15.98
2022-08-28T05:14:15.330Z,16.04
2022-08-28T05:16:11.969Z,16.06
2022-08-28T05:18:13.712Z,16.06
2022-08-28T05:20:14.554Z,16.07
2022-08-28T05:22:15.963Z,16.07
2022-08-28T05:24:17.749Z,16.06
2022-08-28T05:26:19.426Z,16.09
2022-08-28T05:28:20.318Z,16.06
2022-08-28T05:30:22.144Z,16.08
2022-08-28T05:32:23.295Z,16.11
2022-08-28T05:34:24.751Z,16.11
2022-08-28T05:36:32.684Z,16.16
2022-08-28T05:38:27.552Z,16.11
2022-08-28T05:40:29.254Z,16.13
2022-08-28T05:42:30.727Z,16.12
2022-08-28T05:44:31.224Z,16.12
2022-08-28T05:46:32.710Z,16.11
2022-08-28T05:48:36.165Z,16.15
2022-08-28T05:50:35.496Z,16.17
2022-08-28T05:52:37.187Z,16.27
2022-08-28T05:54:38.731Z,16.27
2022-08-28T05:56:40.298Z,16.33
2022-08-28T05:58:41.198Z,16.39
2022-08-28T06:00:42.213Z,16.44
2022-08-28T06:02:43.239Z,16.43
2022-08-28T06:04:44.903Z,16.53
2022-08-28T06:06:46.208Z,16.62
2022-08-28T06:08:56.106Z,16.74
2022-08-28T06:10:50.884Z,16.77
2022-08-28T06:12:50.782Z,16.78
2022-08-28T06:14:52.606Z,16.81
2022-08-28T06:16:54.319Z,16.9
2022-08-28T06:18:55.543Z,17.04
2022-08-28T06:20:56.545Z,17.12
2022-08-28T06:22:57.637Z,17.14
2022-08-28T06:24:58.633Z,17.32
2022-08-28T06:26:59.806Z,17.42
2022-08-28T06:29:01.102Z,17.37
2022-08-28T06:31:18.890Z,17.31
2022-08-28T06:33:04.083Z,17.33
2022-08-28T06:35:04.918Z,17.38
2022-08-28T06:37:06.241Z,17.33
2022-08-28T06:39:08.075Z,17.34
2022-08-28T06:41:09.109Z,17.39
2022-08-28T06:43:10.132Z,17.41
2022-08-28T06:45:11.014Z,17.48
2022-08-28T06:47:12.432Z,17.57
2022-08-28T06:49:13.768Z,17.74
2022-08-28T06:51:15.218Z,17.83
2022-08-28T06:53:16.822Z,17.91
2022-08-28T06:57:20.296Z,18.09
2022-08-28T06:59:21.559Z,18.12
2022-08-28T07:01:22.781Z,18.2
2022-08-28T07:03:24.085Z,18.3
2022-08-28T07:05:25.134Z,18.47
2022-08-28T07:07:31.408Z,18.42
2022-08-28T07:09:28.569Z,18.59
2022-08-28T07:11:30.320Z,18.72
2022-08-28T07:13:33.844Z,18.72
2022-08-28T07:15:33.160Z,18.59
2022-08-28T07:17:34.448Z,18.63
2022-08-28T07:19:35.788Z,18.86
2022-08-28T07:21:38.349Z,18.87
2022-08-28T07:23:39.124Z,18.91
2022-08-28T07:25:40.757Z,18.87
2022-08-28T07:27:41.800Z,18.96
2022-08-28T07:29:42.693Z,19
2022-08-28T07:31:44.465Z,18.91
2022-08-28T07:33:46.144Z,18.84
2022-08-28T07:35:47.214Z,18.92
2022-08-28T07:37:48.082Z,19.1
2022-08-28T07:39:49.408Z,19.13
2022-08-28T07:41:50.628Z,19.12
2022-08-28T07:43:52.445Z,19.31
2022-08-28T07:45:53.303Z,19.49
2022-08-28T07:47:55.064Z,19.49
2022-08-28T07:49:56.787Z,19.44
2022-08-28T07:51:58.065Z,19.3
2022-08-28T07:53:59.142Z,19.71
2022-08-28T07:56:00.041Z,19.56
2022-08-28T07:58:01.227Z,19.4
2022-08-28T08:00:02.810Z,19.53
2022-08-28T08:02:04.325Z,19.79
2022-08-28T08:04:05.283Z,19.82
2022-08-28T08:06:06.624Z,19.72
2022-08-28T08:08:08.422Z,19.73
2022-08-28T08:10:09.554Z,20.09
2022-08-28T08:12:10.624Z,20.3
2022-08-28T08:14:11.510Z,19.82
2022-08-28T08:16:13.136Z,20.18
2022-08-28T08:18:14.887Z,20.36
2022-08-28T08:20:16.131Z,20.02
2022-08-28T08:22:17.134Z,19.94
2022-08-28T08:24:19.455Z,20.12
2022-08-28T08:25:02.621Z,20.31
2022-08-28T08:27:04.405Z,20.4
2022-08-28T08:29:05.741Z,20.19
2022-08-28T08:31:06.887Z,20.44
2022-08-28T08:33:08.056Z,20.37
2022-08-28T08:35:09.653Z,20.61
2022-08-28T08:37:10.593Z,20.45
2022-08-28T08:39:11.928Z,20.8
2022-08-28T08:41:13.044Z,20.84
2022-08-28T08:43:13.951Z,21.01
2022-08-28T08:45:15.691Z,20.56
2022-08-28T08:47:16.601Z,20.65
2022-08-28T08:49:17.874Z,21.01
2022-08-28T08:51:18.784Z,20.81
2022-08-28T08:53:20.545Z,20.98
2022-08-28T08:55:21.526Z,20.58
2022-08-28T08:57:22.442Z,20.84
2022-08-28T08:59:23.267Z,20.81
2022-08-28T09:01:24.170Z,20.82
2022-08-28T09:03:25.027Z,20.7
2022-08-28T09:05:26.271Z,20.96
2022-08-28T09:07:27.539Z,20.87
2022-08-28T09:09:28.882Z,20.83
2022-08-28T09:11:30.102Z,21.03
2022-08-28T09:13:31.584Z,20.97
2022-08-28T09:15:33.009Z,21.09
2022-08-28T09:17:34.647Z,20.89
2022-08-28T09:19:35.960Z,21.03
2022-08-28T09:21:37.471Z,21.3
2022-08-28T09:23:38.721Z,21.56
2022-08-28T09:25:40.330Z,21.34
2022-08-28T09:27:41.806Z,21.52
2022-08-28T09:29:42.814Z,21.51
2022-08-28T09:31:43.925Z,21.63
2022-08-28T09:33:44.819Z,21.85
2022-08-28T09:35:46.230Z,22.05
2022-08-28T09:37:47.194Z,21.98
2022-08-28T09:39:49.020Z,22.04
2022-08-28T09:41:50.061Z,21.75
2022-08-28T09:43:50.941Z,22.26
2022-08-28T09:45:51.998Z,22.18
2022-08-28T09:47:53.234Z,21.89
2022-08-28T09:49:54.691Z,22
2022-08-28T09:51:55.801Z,22.06
2022-08-28T09:53:57.457Z,22.46
2022-08-28T09:55:58.379Z,22.51
2022-08-28T09:57:59.283Z,21.79
2022-08-28T10:00:00.307Z,21.87
2022-08-28T10:02:01.284Z,22.1
2022-08-28T10:04:02.570Z,22.07
2022-08-28T10:06:04.040Z,22.25
2022-08-28T10:08:05.510Z,22.63
2022-08-28T10:10:06.610Z,22.76
2022-08-28T10:12:07.887Z,22.98
2022-08-28T10:14:08.784Z,22.08
2022-08-28T10:16:09.984Z,22.12
2022-08-28T10:18:11.028Z,22.35
2022-08-28T10:20:12.674Z,22.15
2022-08-28T10:22:13.851Z,22.48
2022-08-28T10:24:14.968Z,22.48
2022-08-28T10:26:16.695Z,23.03
2022-08-28T10:28:18.017Z,23.24
2022-08-28T10:30:19.524Z,23.12
2022-08-28T10:32:20.317Z,23.35
2022-08-28T10:34:21.965Z,23.2
2022-08-28T10:36:33.370Z,23.27
2022-08-28T10:38:24.990Z,22.88
2022-08-28T10:40:25.902Z,22.51
2022-08-28T10:42:30.253Z,22.35
2022-08-28T10:44:28.852Z,22.43
2022-08-28T10:46:30.541Z,22.76
2022-08-28T10:48:31.802Z,23.01
2022-08-28T10:50:33.484Z,23.31
2022-08-28T10:52:34.513Z,23.69
2022-08-28T10:54:35.925Z,23.79
2022-08-28T10:56:37.047Z,23.92
2022-08-28T10:58:38.670Z,23.76
2022-08-28T11:00:40.131Z,24.27
2022-08-28T11:02:41.571Z,24.26
2022-08-28T11:04:42.713Z,23.99
2022-08-28T11:06:43.684Z,24.17
2022-08-28T11:08:44.953Z,23.87
2022-08-28T11:10:46.138Z,23.8
2022-08-28T11:12:47.035Z,23.41
2022-08-28T11:14:48.881Z,23.09
2022-08-28T11:16:50.202Z,23.29
2022-08-28T11:18:51.727Z,23.33
2022-08-28T11:20:52.962Z,23.25
2022-08-28T11:22:54.204Z,23.2
2022-08-28T11:24:59.375Z,23.26
2022-08-28T11:26:56.711Z,23.41
2022-08-28T11:28:57.696Z,23.29
2022-08-28T11:30:59.034Z,23.49
2022-08-28T11:33:00.151Z,22.82
2022-08-28T11:35:01.922Z,22.81
2022-08-28T11:37:03.532Z,22.61
2022-08-28T11:39:04.813Z,22.71
2022-08-28T11:41:06.215Z,22.77
2022-08-28T11:43:07.182Z,22.73
2022-08-28T11:45:08.094Z,22.79
2022-08-28T11:47:09.619Z,22.79
2022-08-28T11:49:10.660Z,23.07
2022-08-28T11:51:12.054Z,23.04
2022-08-28T11:53:13.907Z,23.87
2022-08-28T11:57:16.405Z,24.16
2022-08-28T11:59:17.722Z,24.39
2022-08-28T12:01:18.645Z,24.24
2022-08-28T12:03:19.628Z,23.4
2022-08-28T12:05:21.364Z,23.34
2022-08-28T12:07:22.942Z,23.46
2022-08-28T12:09:24.103Z,23.3
2022-08-28T12:11:24.972Z,23.44
2022-08-28T12:13:25.902Z,23.53
2022-08-28T12:15:27.368Z,23.75
2022-08-28T12:17:31.139Z,23.67
2022-08-28T12:19:29.714Z,23.34
2022-08-28T12:21:30.983Z,22.83
2022-08-28T12:23:31.893Z,23.04
2022-08-28T12:25:33.044Z,23.65
2022-08-28T12:27:33.816Z,24.07
2022-08-28T12:29:35.082Z,24.42
2022-08-28T12:31:36.136Z,25.06
2022-08-28T12:33:37.276Z,25.57
2022-08-28T12:35:38.725Z,25.4
2022-08-28T12:37:51.028Z,25.06
2022-08-28T12:39:40.740Z,25.1
2022-08-28T12:41:41.714Z,25.12
2022-08-28T12:43:46.265Z,24.56
2022-08-28T12:45:44.124Z,24.63
2022-08-28T12:47:45.214Z,24.94
2022-08-28T12:49:46.235Z,25.49
2022-08-28T12:51:47.046Z,25.45
2022-08-28T12:55:49.731Z,25.54
2022-08-28T12:57:51.209Z,25.21
2022-08-28T12:59:52.862Z,25.28
2022-08-28T13:01:53.942Z,25.9
2022-08-28T13:03:54.764Z,25.81
2022-08-28T13:05:56.029Z,25.57
2022-08-28T13:07:56.929Z,25.76
2022-08-28T13:09:58.760Z,25.51
2022-08-28T13:11:59.715Z,25.52
2022-08-28T13:14:01.380Z,25.41
2022-08-28T13:16:02.586Z,25.35
2022-08-28T13:18:03.820Z,25.46
2022-08-28T13:20:04.979Z,24.98
2022-08-28T13:22:06.641Z,25.27
2022-08-28T13:24:07.969Z,25.56
2022-08-28T13:26:09.009Z,25.08
2022-08-28T13:28:09.886Z,25.9
2022-08-28T13:30:11.253Z,26.28
2022-08-28T13:32:12.394Z,25.83
2022-08-28T13:34:13.687Z,25.77
2022-08-28T13:36:15.308Z,25.48
2022-08-28T13:38:16.325Z,25.77
2022-08-28T13:40:38.389Z,25.76
2022-08-28T13:42:18.634Z,25.3
2022-08-28T13:44:19.977Z,25.22
2022-08-28T13:46:21.060Z,24.81
2022-08-28T13:48:22.053Z,24.84
2022-08-28T13:50:22.873Z,24.85
2022-08-28T13:52:24.393Z,25.68
2022-08-28T13:54:25.554Z,26.44
2022-08-28T13:56:27.123Z,26.98
2022-08-28T13:58:28.387Z,26.55
2022-08-28T14:00:29.355Z,26.14
2022-08-28T14:02:30.465Z,26
2022-08-28T14:04:31.581Z,26.27
2022-08-28T14:06:32.998Z,25.87
2022-08-28T14:08:34.702Z,25.37
2022-08-28T14:10:35.645Z,25.25
2022-08-28T14:12:36.643Z,25.55
2022-08-28T14:14:38.045Z,25.38
2022-08-28T14:16:39.865Z,25.37
2022-08-28T14:18:40.101Z,24.82
2022-08-28T14:20:40.994Z,24.76
2022-08-28T14:22:41.975Z,24.79
2022-08-28T14:24:52.710Z,24.44
2022-08-28T14:26:44.496Z,24.33
2022-08-28T14:28:45.680Z,24.14
2022-08-28T14:30:47.685Z,24.2
2022-08-28T14:32:49.218Z,24.28
2022-08-28T14:34:50.613Z,24.33
2022-08-28T14:36:51.533Z,24.36
2022-08-28T14:38:54.323Z,24.38
2022-08-28T14:40:54.783Z,24.44
2022-08-28T14:42:56.160Z,24.42
2022-08-28T14:44:57.443Z,24.1
2022-08-28T14:46:59.107Z,23.92
2022-08-28T14:51:01.476Z,23.86
2022-08-28T14:55:03.677Z,23.79
2022-08-28T14:57:04.929Z,23.81
2022-08-28T14:59:06.643Z,23.87
2022-08-28T15:01:07.585Z,23.96
2022-08-28T15:03:09.369Z,23.8
2022-08-28T15:05:10.576Z,23.87
2022-08-28T15:07:11.480Z,24.02
2022-08-28T15:09:13.005Z,24.05
2022-08-28T15:09:56.656Z,24.05
2022-08-28T15:11:58.071Z,23.9
2022-08-28T15:13:59.677Z,23.81
2022-08-28T15:16:00.616Z,23.66
2022-08-28T15:18:02.197Z,23.63
2022-08-28T15:20:03.517Z,23.59
2022-08-28T15:22:04.659Z,23.54
2022-08-28T15:24:06.162Z,23.57
2022-08-28T15:26:07.399Z,23.58
2022-08-28T15:28:08.331Z,23.56
2022-08-28T15:30:09.731Z,24.07
2022-08-28T15:32:11.234Z,25.02
2022-08-28T15:34:13.351Z,25.08
2022-08-28T15:36:13.655Z,25.51
2022-08-28T15:38:14.632Z,25.4
2022-08-28T15:40:16.314Z,26.39
2022-08-28T15:42:17.891Z,26.63
2022-08-28T15:44:18.749Z,25.85
2022-08-28T15:46:19.577Z,26.33
2022-08-28T15:48:20.869Z,26.32
2022-08-28T15:50:21.762Z,26.5
2022-08-28T15:52:22.530Z,26.4
2022-08-28T15:54:24.171Z,26.37
2022-08-28T15:56:25.215Z,25.92
2022-08-28T15:58:26.112Z,25.85
2022-08-28T16:00:26.895Z,25.71
2022-08-28T16:02:28.687Z,25.58
2022-08-28T16:04:29.843Z,25.36
2022-08-28T16:06:30.791Z,25.59
2022-08-28T16:08:31.918Z,25.68
2022-08-28T16:10:32.726Z,25.56
2022-08-28T16:12:34.440Z,25.79
2022-08-28T16:14:35.610Z,25.84
2022-08-28T16:16:37.034Z,26.01
2022-08-28T16:18:38.233Z,26.27
2022-08-28T16:20:39.548Z,26.32
2022-08-28T16:22:41.098Z,25.3
2022-08-28T16:24:42.856Z,25.06
2022-08-28T16:26:44.540Z,25.09
2022-08-28T16:28:45.357Z,25.07
2022-08-28T16:30:46.248Z,24.98
2022-08-28T16:32:47.493Z,24.54
2022-08-28T16:34:48.361Z,24.52
2022-08-28T16:36:50.039Z,24.31
2022-08-28T16:38:52.833Z,24.21
2022-08-28T16:40:52.121Z,24.05
2022-08-28T16:42:53.693Z,23.95
2022-08-28T16:44:55.459Z,23.94
2022-08-28T16:46:57.200Z,24.05
2022-08-28T16:48:58.363Z,23.88
2022-08-28T16:51:00.154Z,23.79
2022-08-28T16:53:04.853Z,23.76
2022-08-28T16:55:02.688Z,23.71
2022-08-28T16:57:04.487Z,23.68
2022-08-28T16:59:08.987Z,23.63
2022-08-28T17:01:07.850Z,23.64
2022-08-28T17:03:08.932Z,23.57
2022-08-28T17:05:10.686Z,23.48
2022-08-28T17:07:12.077Z,23.48
2022-08-28T17:09:13.290Z,23.49
2022-08-28T17:11:14.139Z,23.44
2022-08-28T17:13:15.343Z,23.38
2022-08-28T17:15:17.018Z,23.38
2022-08-28T17:17:18.001Z,23.37
2022-08-28T17:19:18.837Z,23.33
2022-08-28T17:21:20.361Z,23.25
2022-08-28T17:23:21.414Z,23.24
2022-08-28T17:25:22.503Z,23.18
2022-08-28T17:27:23.614Z,23.04
2022-08-28T17:29:24.774Z,23.03
2022-08-28T17:31:25.940Z,22.98
2022-08-28T17:33:27.026Z,22.91
2022-08-28T17:35:27.931Z,22.87
2022-08-28T17:37:28.788Z,22.83
2022-08-28T17:39:30.372Z,22.79
2022-08-28T17:41:32.031Z,22.69
2022-08-28T17:43:33.067Z,22.43
2022-08-28T17:45:34.801Z,22.23
2022-08-28T17:47:35.868Z,22.07
2022-08-28T17:49:36.978Z,21.95
2022-08-28T17:51:43.200Z,21.86
2022-08-28T17:53:39.338Z,21.79
2022-08-28T17:55:41.019Z,21.75
2022-08-28T17:57:42.214Z,21.69
2022-08-28T17:59:43.892Z,21.61
2022-08-28T18:01:45.018Z,21.55
2022-08-28T18:03:50.666Z,21.52
2022-08-28T18:05:47.247Z,21.48
2022-08-28T18:07:48.735Z,21.48
2022-08-28T18:09:50.041Z,21.48
2022-08-28T18:11:51.423Z,21.59
2022-08-28T18:13:52.303Z,21.64
2022-08-28T18:15:54.485Z,21.77
2022-08-28T18:17:54.536Z,21.76
2022-08-28T18:19:55.889Z,21.68
2022-08-28T18:21:57.232Z,21.57
2022-08-28T18:23:58.444Z,21.54
2022-08-28T18:25:59.722Z,21.58
2022-08-28T18:28:00.605Z,21.55
2022-08-28T18:30:01.581Z,21.46
2022-08-28T18:32:03.347Z,21.33
2022-08-28T18:34:05.030Z,21.26
2022-08-28T18:36:05.961Z,21.28
2022-08-28T18:38:07.576Z,21.29
2022-08-28T18:40:09.252Z,21.26
2022-08-28T18:42:10.906Z,21.13
2022-08-28T18:44:11.859Z,21.16
2022-08-28T18:46:12.786Z,21.12
2022-08-28T18:48:13.763Z,21.01
2022-08-28T18:50:14.926Z,20.99
2022-08-28T18:52:15.872Z,20.95
2022-08-28T18:54:17.632Z,21
2022-08-28T18:56:19.322Z,21.07
2022-08-28T18:58:21.125Z,21.1
2022-08-28T19:00:22.168Z,21.05
2022-08-28T19:02:23.709Z,21.17
2022-08-28T19:04:25.079Z,21.14
2022-08-28T19:06:26.243Z,21.27
2022-08-28T19:08:27.683Z,21.28
2022-08-28T19:10:33.709Z,21.32
2022-08-28T19:12:29.490Z,21.32
2022-08-28T19:14:30.423Z,21.3
2022-08-28T19:16:31.943Z,21.18
2022-08-28T19:18:33.045Z,21.25
2022-08-28T19:20:34.463Z,21.11
2022-08-28T19:22:35.467Z,21.06
2022-08-28T19:24:36.703Z,21.02
2022-08-28T19:26:37.767Z,20.92
2022-08-28T19:28:38.845Z,21.04
2022-08-28T19:30:40.128Z,20.98
2022-08-28T19:32:41.420Z,20.82
2022-08-28T19:34:42.585Z,20.87
2022-08-28T19:36:44.210Z,20.96
2022-08-28T19:38:45.536Z,20.86
2022-08-28T19:40:47.091Z,20.92
2022-08-28T19:42:48.450Z,20.84
2022-08-28T19:44:51.207Z,20.81
2022-08-28T19:46:51.135Z,20.62
2022-08-28T19:48:52.460Z,20.5
2022-08-28T19:50:54.150Z,20.48
2022-08-28T19:52:55.506Z,20.36
2022-08-28T19:54:57.188Z,20.34
2022-08-28T19:56:58.424Z,20.23
2022-08-28T19:59:00.255Z,20.11
2022-08-28T20:01:02.152Z,20.15
2022-08-28T20:03:03.775Z,20.03
2022-08-28T20:05:05.329Z,19.88
2022-08-28T20:07:06.878Z,19.67
2022-08-28T20:09:12.134Z,19.52
2022-08-28T20:11:09.216Z,19.41
2022-08-28T20:13:10.932Z,19.49
2022-08-28T20:15:13.346Z,19.61
2022-08-28T20:17:14.090Z,19.58
2022-08-28T20:19:15.190Z,19.48
2022-08-28T20:21:16.110Z,19.39
2022-08-28T20:23:17.326Z,19.37
2022-08-28T20:25:18.453Z,19.29
2022-08-28T20:27:19.869Z,19.26
2022-08-28T20:29:21.456Z,19.3
2022-08-28T20:31:22.463Z,19.27
2022-08-28T20:33:24.219Z,19.16
2022-08-28T20:35:27.522Z,19.11
2022-08-28T20:37:27.288Z,19.11
2022-08-28T20:39:28.569Z,19.04
2022-08-28T20:41:30.179Z,18.93
2022-08-28T20:43:31.170Z,18.87
2022-08-28T20:45:32.410Z,18.82
2022-08-28T20:47:33.572Z,18.8
2022-08-28T20:49:36.815Z,18.71
2022-08-28T20:51:36.643Z,18.74
2022-08-28T20:53:38.104Z,18.75
2022-08-28T20:55:39.073Z,18.53
2022-08-28T20:57:40.445Z,18.35
2022-08-28T20:59:41.711Z,18.26
2022-08-28T21:01:42.778Z,18.16
2022-08-28T21:05:47.671Z,18.08
2022-08-28T21:07:45.813Z,17.92
2022-08-28T21:10:04.655Z,18.01
2022-08-28T21:11:48.763Z,18.07
2022-08-28T21:13:49.936Z,18.09
2022-08-28T21:15:51.755Z,18.17
2022-08-28T21:17:53.216Z,18.17
2022-08-28T21:19:54.909Z,18.24
2022-08-28T21:21:56.555Z,18.09
2022-08-28T21:23:57.564Z,17.97
2022-08-28T21:25:58.511Z,17.87
2022-08-28T21:27:59.826Z,17.82
2022-08-28T21:30:00.801Z,17.73
2022-08-28T21:32:02.455Z,17.73
2022-08-28T21:34:04.027Z,17.73
2022-08-28T21:36:05.734Z,17.53
2022-08-28T21:38:07.083Z,17.44
2022-08-28T21:40:08.290Z,17.32
2022-08-28T21:42:09.799Z,17.24
2022-08-28T21:44:10.999Z,17.13
2022-08-28T21:46:12.122Z,17.12
2022-08-28T21:48:13.666Z,17.01
2022-08-28T21:50:15.134Z,17.13
2022-08-28T21:52:16.064Z,17.03
2022-08-28T21:54:17.077Z,17
2022-08-28T21:55:00.830Z,17.04
2022-08-28T21:57:02.252Z,16.96
2022-08-28T21:59:03.800Z,17.01
2022-08-28T22:01:05.125Z,17.02
2022-08-28T22:03:06.007Z,17
2022-08-28T22:05:07.245Z,16.89
2022-08-28T22:07:08.720Z,17.02
2022-08-28T22:09:10.552Z,16.88
2022-08-28T22:11:11.715Z,16.79
2022-08-28T22:13:12.852Z,16.63
2022-08-28T22:15:14.409Z,16.52
2022-08-28T22:17:15.510Z,16.34
2022-08-28T22:19:17.076Z,16.13
2022-08-28T22:21:18.791Z,16.04
2022-08-28T22:23:20.049Z,16.04
2022-08-28T22:25:21.679Z,16.19
2022-08-28T22:27:23.105Z,16.33
2022-08-28T22:29:24.460Z,16.39
2022-08-28T22:31:25.719Z,16.41
2022-08-28T22:33:26.830Z,16.39
2022-08-28T22:35:27.861Z,16.18
2022-08-28T22:37:29.551Z,16.48
2022-08-28T22:39:30.838Z,16.43
2022-08-28T22:41:32.332Z,16.39
2022-08-28T22:43:33.503Z,16.49
2022-08-28T22:45:34.586Z,16.48
2022-08-28T22:47:35.951Z,16.37
2022-08-28T22:49:39.682Z,16.35
2022-08-28T22:51:39.180Z,16.28
2022-08-28T22:53:40.975Z,16.22
2022-08-28T22:55:43.485Z,16.07
2022-08-28T22:57:43.785Z,15.97
2022-08-28T22:59:45.123Z,15.8
2022-08-28T23:01:46.631Z,15.65
2022-08-28T23:03:47.992Z,15.45
2022-08-28T23:05:48.882Z,15.28
2022-08-28T23:07:49.976Z,15.35
2022-08-28T23:09:51.193Z,15.38
2022-08-28T23:11:52.835Z,15.41
2022-08-28T23:13:54.436Z,15.46
2022-08-28T23:15:55.769Z,15.5
2022-08-28T23:17:57.337Z,15.45
2022-08-28T23:19:58.269Z,15.35
2022-08-28T23:21:59.456Z,15.28
2022-08-28T23:24:00.416Z,15.29
2022-08-28T23:26:01.589Z,15.25
2022-08-28T23:28:05.901Z,15.18
2022-08-28T23:30:03.562Z,15.22
2022-08-28T23:32:04.803Z,15.08
2022-08-28T23:34:06.209Z,15.02
2022-08-28T23:36:07.444Z,15
2022-08-28T23:38:09.886Z,14.85
2022-08-28T23:40:10.421Z,14.78
2022-08-28T23:42:11.648Z,14.66
2022-08-28T23:44:12.782Z,14.55
2022-08-28T23:46:14.303Z,14.72
2022-08-28T23:48:15.553Z,14.59
2022-08-28T23:50:17.274Z,14.55
2022-08-28T23:52:18.446Z,14.58
2022-08-28T23:54:20.233Z,14.52
2022-08-28T23:56:21.442Z,14.39
2022-08-28T23:58:23.187Z,14.3
